createdAt,value
2018-03-11T00:00:50.374Z,99.99
2018-03-11T00:01:59.827Z,99.99
2018-03-11T00:03:09.016Z,99.99
2018-03-11T00:04:18.742Z,99.99
2018-03-11T00:05:28.731Z,99.99
2018-03-11T00:06:38.450Z,99.99
2018-03-11T00:07:48.219Z,99.99
2018-03-11T00:08:58.206Z,99.99
2018-03-11T00:10:07.660Z,99.99
2018-03-11T00:11:17.654Z,99.99
2018-03-11T00:12:27.696Z,99.99
2018-03-11T00:13:37.687Z,99.99
2018-03-11T00:14:47.675Z,99.99
2018-03-11T00:15:57.665Z,99.99
2018-03-11T00:17:07.399Z,99.99
2018-03-11T00:18:17.391Z,99.99
2018-03-11T00:19:27.385Z,99.99
2018-03-11T00:20:37.383Z,99.99
2018-03-11T00:21:47.365Z,99.99
2018-03-11T00:22:57.347Z,99.99
2018-03-11T00:24:06.801Z,99.99
2018-03-11T00:25:16.526Z,99.99
2018-03-11T00:26:26.513Z,99.99
2018-03-11T00:27:36.506Z,99.99
2018-03-11T00:28:46.505Z,99.99
2018-03-11T00:29:56.542Z,99.99
2018-03-11T00:31:05.736Z,99.99
2018-03-11T00:32:15.727Z,99.99
2018-03-11T00:33:25.712Z,99.99
2018-03-11T00:34:35.693Z,99.99
2018-03-11T00:35:45.781Z,99.99
2018-03-11T00:36:55.498Z,99.99
2018-03-11T00:38:05.216Z,99.99
2018-03-11T00:39:15.206Z,99.99
2018-03-11T00:40:25.201Z,99.99
2018-03-11T00:41:34.920Z,99.99
2018-03-11T00:42:44.905Z,99.99
2018-03-11T00:43:54.623Z,99.99
2018-03-11T00:45:04.625Z,99.99
2018-03-11T00:46:14.344Z,99.99
2018-03-11T00:47:24.344Z,99.99
2018-03-11T00:48:34.332Z,99.99
2018-03-11T00:49:44.324Z,99.99
2018-03-11T00:50:54.041Z,99.99
2018-03-11T00:52:03.491Z,99.99
2018-03-11T00:53:13.207Z,99.99
2018-03-11T00:54:23.200Z,99.99
2018-03-11T00:55:32.915Z,99.99
2018-03-11T00:56:42.634Z,99.99
2018-03-11T00:57:52.624Z,99.99
2018-03-11T00:59:02.618Z,99.99
2018-03-11T01:00:12.605Z,99.99
2018-03-11T01:01:22.592Z,99.99
2018-03-11T01:02:32.575Z,99.99
2018-03-11T01:03:42.577Z,99.99
2018-03-11T01:04:52.564Z,99.99
2018-03-11T01:06:02.280Z,99.99
2018-03-11T01:07:12.000Z,99.99
2018-03-11T01:08:21.723Z,99.99
2018-03-11T01:09:31.447Z,99.99
2018-03-11T01:10:41.436Z,99.99
2018-03-11T01:11:51.429Z,99.99
2018-03-11T01:13:01.144Z,99.99
2018-03-11T01:14:10.868Z,99.99
2018-03-11T01:15:20.860Z,99.99
2018-03-11T01:16:30.599Z,99.99
2018-03-11T01:17:39.786Z,99.99
2018-03-11T01:18:49.776Z,99.99
2018-03-11T01:19:59.764Z,99.99
2018-03-11T01:21:09.764Z,99.99
2018-03-11T01:22:19.488Z,99.99
2018-03-11T01:23:29.477Z,99.99
2018-03-11T01:24:38.928Z,99.99
2018-03-11T01:25:48.923Z,99.99
2018-03-11T01:26:58.644Z,99.99
2018-03-11T01:28:08.364Z,99.99
2018-03-11T01:29:18.355Z,99.99
2018-03-11T01:30:28.072Z,99.99
2018-03-11T01:31:37.796Z,99.99
2018-03-11T01:32:47.782Z,99.99
2018-03-11T01:33:57.769Z,99.99
2018-03-11T01:35:07.494Z,99.99
2018-03-11T01:36:17.482Z,99.99
2018-03-11T01:37:27.471Z,99.99
2018-03-11T01:38:37.199Z,99.99
2018-03-11T01:39:47.185Z,99.99
2018-03-11T01:40:56.901Z,99.99
2018-03-11T01:42:06.352Z,99.99
2018-03-11T01:43:16.129Z,99.99
2018-03-11T01:44:25.582Z,99.99
2018-03-11T01:45:35.301Z,99.99
2018-03-11T01:46:45.292Z,99.99
2018-03-11T01:47:55.016Z,99.99
2018-03-11T01:49:04.475Z,99.99
2018-03-11T01:50:14.467Z,99.99
2018-03-11T01:51:24.452Z,99.99
2018-03-11T01:52:34.436Z,99.99
2018-03-11T01:53:43.889Z,99.99
2018-03-11T01:54:53.870Z,99.99
2018-03-11T01:56:03.324Z,99.99
2018-03-11T01:57:13.319Z,99.99
2018-03-11T01:58:23.415Z,99.99
2018-03-11T01:59:33.205Z,99.99
2018-03-11T02:00:43.192Z,99.99
2018-03-11T02:01:53.190Z,99.99
2018-03-11T02:03:02.913Z,99.99
2018-03-11T02:04:12.984Z,99.99
2018-03-11T02:05:22.708Z,99.99
2018-03-11T02:06:31.900Z,99.99
2018-03-11T02:07:41.903Z,99.99
2018-03-11T02:08:51.910Z,99.99
2018-03-11T02:10:01.891Z,99.99
2018-03-11T02:11:11.343Z,99.99
2018-03-11T02:12:21.332Z,99.99
2018-03-11T02:13:31.324Z,99.99
2018-03-11T02:14:40.509Z,99.99
2018-03-11T02:15:50.227Z,99.99
2018-03-11T02:17:00.214Z,99.99
2018-03-11T02:18:09.464Z,99.99
2018-03-11T02:19:19.183Z,99.99
2018-03-11T02:20:29.170Z,99.99
2018-03-11T02:21:38.894Z,99.99
2018-03-11T02:22:48.890Z,99.99
2018-03-11T02:23:58.875Z,99.99
2018-03-11T02:25:08.866Z,99.99
2018-03-11T02:26:18.860Z,99.99
2018-03-11T02:27:28.592Z,99.99
2018-03-11T02:28:38.628Z,99.99
2018-03-11T02:29:48.622Z,99.99
2018-03-11T02:30:58.618Z,99.99
2018-03-11T02:32:08.074Z,99.99
2018-03-11T02:33:17.532Z,99.99
2018-03-11T02:34:27.272Z,99.99
2018-03-11T02:35:37.005Z,99.99
2018-03-11T02:36:46.994Z,99.99
2018-03-11T02:37:57.018Z,99.99
2018-03-11T02:39:07.020Z,99.99
2018-03-11T02:40:16.493Z,99.99
2018-03-11T02:41:26.490Z,99.99
2018-03-11T02:42:36.501Z,99.99
2018-03-11T02:43:46.223Z,99.99
2018-03-11T02:44:56.267Z,99.99
2018-03-11T02:46:06.273Z,99.99
2018-03-11T02:47:16.008Z,99.99
2018-03-11T02:48:26.001Z,99.99
2018-03-11T02:49:35.737Z,99.99
2018-03-11T02:50:45.188Z,99.99
2018-03-11T02:51:55.241Z,99.99
2018-03-11T02:53:04.706Z,99.99
2018-03-11T02:54:14.430Z,99.99
2018-03-11T02:55:24.418Z,99.99
2018-03-11T02:56:34.410Z,99.99
2018-03-11T02:57:44.410Z,99.99
2018-03-11T02:58:54.396Z,99.99
2018-03-11T03:00:03.867Z,99.99
2018-03-11T03:01:13.853Z,99.99
2018-03-11T03:02:27.196Z,99.99
2018-03-11T03:03:36.917Z,99.99
2018-03-11T03:04:46.914Z,99.99
2018-03-11T03:05:56.912Z,99.99
2018-03-11T03:07:06.372Z,99.99
2018-03-11T03:08:16.363Z,99.99
2018-03-11T03:09:26.349Z,99.99
2018-03-11T03:10:36.067Z,99.99
2018-03-11T03:11:45.789Z,99.99
2018-03-11T03:12:55.792Z,99.99
2018-03-11T03:14:04.995Z,99.99
2018-03-11T03:15:14.986Z,99.99
2018-03-11T03:16:25.017Z,99.99
2018-03-11T03:17:34.999Z,99.99
2018-03-11T03:18:44.994Z,99.99
2018-03-11T03:19:54.815Z,99.99
2018-03-11T03:21:04.812Z,99.99
2018-03-11T03:22:14.828Z,99.99
2018-03-11T03:23:24.553Z,99.99
2018-03-11T03:24:34.010Z,99.99
2018-03-11T03:25:44.103Z,99.99
2018-03-11T03:26:53.820Z,99.99
2018-03-11T03:28:03.810Z,99.99
2018-03-11T03:29:13.800Z,99.99
2018-03-11T03:30:23.798Z,99.99
2018-03-11T03:31:33.323Z,99.99
2018-03-11T03:32:43.328Z,99.99
2018-03-11T03:33:53.048Z,99.99
2018-03-11T03:35:03.040Z,99.99
2018-03-11T03:36:13.029Z,99.99
2018-03-11T03:37:23.367Z,99.99
2018-03-11T03:38:33.457Z,99.99
2018-03-11T03:39:42.653Z,99.99
2018-03-11T03:40:52.377Z,99.99
2018-03-11T03:42:01.829Z,99.99
2018-03-11T03:43:11.294Z,99.99
2018-03-11T03:44:21.025Z,99.99
2018-03-11T03:45:30.753Z,99.99
2018-03-11T03:46:40.484Z,99.99
2018-03-11T03:47:50.202Z,99.99
2018-03-11T03:49:00.195Z,99.99
2018-03-11T03:50:09.921Z,99.99
2018-03-11T03:51:19.912Z,99.99
2018-03-11T03:52:29.381Z,99.99
2018-03-11T03:53:39.150Z,99.99
2018-03-11T03:54:48.605Z,99.99
2018-03-11T03:55:58.597Z,99.99
2018-03-11T03:57:08.320Z,99.99
2018-03-11T03:58:18.317Z,99.99
2018-03-11T03:59:27.502Z,99.99
2018-03-11T04:03:24.521Z,99.99
2018-03-11T04:04:34.512Z,99.99
2018-03-11T04:05:44.503Z,99.99
2018-03-11T04:06:54.498Z,99.99
2018-03-11T04:08:03.958Z,99.99
2018-03-11T04:09:13.678Z,99.99
2018-03-11T04:10:23.664Z,99.99
2018-03-11T04:11:33.385Z,99.99
2018-03-11T04:12:43.381Z,99.99
2018-03-11T04:13:53.101Z,99.99
2018-03-11T04:15:04.562Z,99.99
2018-03-11T04:16:14.554Z,99.99
2018-03-11T04:17:24.272Z,99.99
2018-03-11T04:18:33.459Z,99.99
2018-03-11T04:19:43.450Z,99.99
2018-03-11T04:20:52.963Z,99.99
2018-03-11T04:22:02.423Z,99.99
2018-03-11T04:23:12.147Z,99.99
2018-03-11T04:24:21.882Z,99.99
2018-03-11T04:25:31.339Z,99.99
2018-03-11T04:26:41.065Z,99.99
2018-03-11T04:27:50.842Z,99.99
2018-03-11T04:29:00.564Z,99.99
2018-03-11T04:30:10.572Z,99.99
2018-03-11T04:31:20.028Z,99.99
2018-03-11T04:32:29.847Z,99.99
2018-03-11T04:33:39.569Z,99.99
2018-03-11T04:34:49.563Z,99.99
2018-03-11T04:35:59.550Z,99.99
2018-03-11T04:37:09.270Z,99.99
2018-03-11T04:38:19.327Z,99.99
2018-03-11T04:39:29.066Z,99.99
2018-03-11T04:40:39.060Z,99.99
2018-03-11T04:41:49.061Z,99.99
2018-03-11T04:42:59.066Z,99.99
2018-03-11T04:44:08.896Z,99.99
2018-03-11T04:45:18.619Z,99.99
2018-03-11T04:46:28.342Z,99.99
2018-03-11T04:47:37.264Z,99.99
2018-03-11T04:48:46.722Z,99.99
2018-03-11T04:49:56.718Z,99.99
2018-03-11T04:51:06.472Z,99.99
2018-03-11T04:52:15.933Z,99.99
2018-03-11T04:53:25.924Z,99.99
2018-03-11T04:54:35.648Z,99.99
2018-03-11T04:55:45.383Z,99.99
2018-03-11T04:56:55.370Z,99.99
2018-03-11T04:58:05.093Z,99.99
2018-03-11T04:59:14.811Z,99.99
2018-03-11T05:00:24.537Z,99.99
2018-03-11T05:01:34.527Z,99.99
2018-03-11T05:02:44.246Z,99.99
2018-03-11T05:03:54.239Z,99.99
2018-03-11T05:05:04.225Z,99.99
2018-03-11T05:06:14.252Z,99.99
2018-03-11T05:07:23.976Z,99.99
2018-03-11T05:08:33.695Z,99.99
2018-03-11T05:09:43.148Z,99.99
2018-03-11T05:10:52.607Z,99.99
2018-03-11T05:12:02.599Z,99.99
2018-03-11T05:13:12.110Z,99.99
2018-03-11T05:14:21.569Z,99.99
2018-03-11T05:15:31.282Z,99.99
2018-03-11T05:16:41.268Z,99.99
2018-03-11T05:17:50.994Z,99.99
2018-03-11T05:19:00.996Z,99.99
2018-03-11T05:20:10.981Z,99.99
2018-03-11T05:21:20.978Z,99.99
2018-03-11T05:22:30.703Z,99.99
2018-03-11T05:23:40.693Z,99.99
2018-03-11T05:24:50.412Z,99.99
2018-03-11T05:26:00.405Z,99.99
2018-03-11T05:27:10.132Z,99.99
2018-03-11T05:28:19.859Z,99.99
2018-03-11T05:29:29.880Z,99.99
2018-03-11T05:30:39.336Z,99.99
2018-03-11T05:31:49.057Z,99.99
2018-03-11T05:32:59.051Z,99.99
2018-03-11T05:34:09.051Z,99.99
2018-03-11T05:35:19.040Z,99.99
2018-03-11T05:36:29.031Z,99.99
2018-03-11T05:37:39.016Z,99.99
2018-03-11T05:38:48.746Z,99.99
2018-03-11T05:39:58.739Z,99.99
2018-03-11T05:41:08.210Z,99.99
2018-03-11T05:42:18.216Z,99.99
2018-03-11T05:43:28.212Z,99.99
2018-03-11T05:44:38.203Z,99.99
2018-03-11T05:45:48.193Z,99.99
2018-03-11T05:46:58.193Z,99.99
2018-03-11T05:48:07.650Z,99.99
2018-03-11T05:49:17.381Z,99.99
2018-03-11T05:50:27.369Z,99.99
2018-03-11T05:51:37.098Z,99.99
2018-03-11T05:52:47.090Z,99.99
2018-03-11T05:53:57.103Z,99.99
2018-03-11T05:55:06.868Z,99.99
2018-03-11T05:56:16.584Z,99.99
2018-03-11T05:57:26.307Z,99.99
2018-03-11T05:58:36.304Z,99.99
2018-03-11T05:59:45.758Z,99.99
2018-03-11T06:00:55.765Z,99.99
2018-03-11T06:02:05.227Z,99.99
2018-03-11T06:03:15.216Z,99.99
2018-03-11T06:04:25.234Z,99.99
2018-03-11T06:05:34.688Z,99.99
2018-03-11T06:06:44.678Z,99.99
2018-03-11T06:07:53.861Z,99.99
2018-03-11T06:09:03.851Z,99.99
2018-03-11T06:10:13.837Z,99.99
2018-03-11T06:11:23.825Z,99.99
2018-03-11T06:12:33.812Z,99.99
2018-03-11T06:13:43.798Z,99.99
2018-03-11T06:14:53.789Z,99.99
2018-03-11T06:16:03.786Z,99.99
2018-03-11T06:17:13.600Z,99.99
2018-03-11T06:18:23.594Z,99.99
2018-03-11T06:19:32.513Z,99.99
2018-03-11T06:20:42.504Z,99.99
2018-03-11T06:21:52.228Z,99.99
2018-03-11T06:23:01.693Z,99.99
2018-03-11T06:24:11.143Z,99.99
2018-03-11T06:25:21.134Z,99.99
2018-03-11T06:26:31.175Z,99.99
2018-03-11T06:27:41.295Z,99.99
2018-03-11T06:28:50.485Z,99.99
2018-03-11T06:30:00.476Z,99.99
2018-03-11T06:31:09.924Z,99.99
2018-03-11T06:32:19.643Z,99.99
2018-03-11T06:33:29.667Z,99.99
2018-03-11T06:34:39.389Z,99.99
2018-03-11T06:35:49.373Z,99.99
2018-03-11T06:36:59.361Z,99.99
2018-03-11T06:38:09.356Z,99.99
2018-03-11T06:39:19.354Z,99.99
2018-03-11T06:40:29.442Z,99.99
2018-03-11T06:41:39.175Z,99.99
2018-03-11T06:42:49.165Z,99.99
2018-03-11T06:43:59.151Z,99.99
2018-03-11T06:45:08.339Z,99.99
2018-03-11T06:46:17.794Z,99.99
2018-03-11T06:47:27.783Z,99.99
2018-03-11T06:48:37.770Z,99.99
2018-03-11T06:49:47.762Z,99.99
2018-03-11T06:50:57.752Z,99.99
2018-03-11T06:52:07.802Z,99.99
2018-03-11T06:53:17.859Z,99.99
2018-03-11T06:54:27.590Z,99.99
2018-03-11T06:55:37.313Z,99.99
2018-03-11T06:56:47.300Z,99.99
2018-03-11T06:57:56.758Z,99.99
2018-03-11T06:59:06.479Z,99.99
2018-03-11T07:00:15.938Z,99.99
2018-03-11T07:01:25.669Z,99.99
2018-03-11T07:02:35.659Z,99.99
2018-03-11T07:03:45.416Z,99.99
2018-03-11T07:04:54.878Z,99.99
2018-03-11T07:06:04.876Z,99.99
2018-03-11T07:07:14.071Z,99.99
2018-03-11T07:08:23.794Z,99.99
2018-03-11T07:09:33.786Z,99.99
2018-03-11T07:10:43.513Z,99.99
2018-03-11T07:11:52.704Z,99.99
2018-03-11T07:13:02.698Z,99.99
2018-03-11T07:14:12.694Z,99.99
2018-03-11T07:15:22.687Z,99.99
2018-03-11T07:16:32.413Z,99.99
2018-03-11T07:17:42.408Z,99.99
2018-03-11T07:18:52.400Z,99.99
2018-03-11T07:20:02.428Z,99.99
2018-03-11T07:21:12.424Z,99.99
2018-03-11T07:22:22.421Z,99.99
2018-03-11T07:23:32.416Z,99.99
2018-03-11T07:24:42.411Z,99.99
2018-03-11T07:25:51.863Z,99.99
2018-03-11T07:27:01.319Z,99.99
2018-03-11T07:28:10.513Z,99.99
2018-03-11T07:29:20.501Z,99.99
2018-03-11T07:30:30.227Z,99.99
2018-03-11T07:31:40.210Z,99.99
2018-03-11T07:32:50.209Z,99.99
2018-03-11T07:34:00.196Z,99.99
2018-03-11T07:35:09.933Z,99.99
2018-03-11T07:36:19.391Z,99.99
2018-03-11T07:37:29.392Z,99.99
2018-03-11T07:38:39.383Z,99.99
2018-03-11T07:39:49.368Z,99.99
2018-03-11T07:40:59.365Z,99.99
2018-03-11T07:42:09.133Z,99.99
2018-03-11T07:43:19.134Z,99.99
2018-03-11T07:44:28.591Z,99.99
2018-03-11T07:45:38.595Z,99.99
2018-03-11T07:46:48.588Z,99.99
2018-03-11T07:47:58.310Z,99.99
2018-03-11T07:49:08.091Z,99.99
2018-03-11T07:50:17.575Z,99.99
2018-03-11T07:51:27.566Z,99.99
2018-03-11T07:52:37.293Z,99.99
2018-03-11T07:53:47.276Z,99.99
2018-03-11T07:54:57.263Z,99.99
2018-03-11T07:56:07.257Z,99.99
2018-03-11T07:57:17.255Z,99.99
2018-03-11T07:58:27.242Z,99.99
2018-03-11T07:59:36.981Z,99.99
2018-03-11T08:00:46.973Z,99.99
2018-03-11T08:01:57.008Z,99.99
2018-03-11T08:03:06.727Z,99.99
2018-03-11T08:04:16.180Z,99.99
2018-03-11T08:05:25.109Z,99.99
2018-03-11T08:06:35.101Z,99.99
2018-03-11T08:07:44.559Z,99.99
2018-03-11T08:08:54.279Z,99.99
2018-03-11T08:10:03.767Z,99.99
2018-03-11T08:11:13.226Z,99.99
2018-03-11T08:12:22.686Z,99.99
2018-03-11T08:13:32.145Z,99.99
2018-03-11T08:14:42.138Z,99.99
2018-03-11T08:15:52.171Z,99.99
2018-03-11T08:17:02.197Z,99.99
2018-03-11T08:18:12.191Z,99.99
2018-03-11T08:19:22.193Z,99.99
2018-03-11T08:20:32.189Z,99.99
2018-03-11T08:21:42.183Z,99.99
2018-03-11T08:22:51.641Z,99.99
2018-03-11T08:24:00.840Z,97.85
2018-03-11T08:25:10.612Z,96.06
2018-03-11T08:26:20.612Z,96.06
2018-03-11T08:27:30.618Z,95.78
2018-03-11T08:28:40.609Z,96.06
2018-03-11T08:29:49.803Z,95.31
2018-03-11T08:30:59.798Z,95.12
2018-03-11T08:32:09.801Z,94.55
2018-03-11T08:33:19.797Z,92.47
2018-03-11T08:34:29.528Z,92
2018-03-11T08:35:39.523Z,91.96
2018-03-11T08:36:49.247Z,91.3
2018-03-11T08:37:59.250Z,91.3
2018-03-11T08:39:09.243Z,89.4
2018-03-11T08:40:18.705Z,88.37
2018-03-11T08:41:28.699Z,89.03
2018-03-11T08:42:38.428Z,89.88
2018-03-11T08:43:48.430Z,89.97
2018-03-11T08:44:58.165Z,89.59
2018-03-11T08:46:07.412Z,88.65
2018-03-11T08:47:17.400Z,87.52
2018-03-11T08:48:27.471Z,87.62
2018-03-11T08:49:37.468Z,87.24
2018-03-11T08:50:47.474Z,87.24
2018-03-11T08:51:57.193Z,86.19
2018-03-11T08:53:06.915Z,85.82
2018-03-11T08:54:16.381Z,85.35
2018-03-11T08:55:26.119Z,83.46
2018-03-11T08:56:35.849Z,83.46
2018-03-11T08:57:45.626Z,84.31
2018-03-11T08:58:55.356Z,84.69
2018-03-11T09:00:05.437Z,84.78
2018-03-11T09:01:15.194Z,84.78
2018-03-11T09:02:25.194Z,85.35
2018-03-11T09:03:35.186Z,84.97
2018-03-11T09:04:45.186Z,84.73
2018-03-11T09:05:55.188Z,84.92
2018-03-11T09:07:05.185Z,84.26
2018-03-11T09:08:15.182Z,82.93
2018-03-11T09:09:25.177Z,81.76
2018-03-11T09:10:35.002Z,81.76
2018-03-11T09:11:44.892Z,82.04
2018-03-11T09:12:54.894Z,81.76
2018-03-11T09:14:04.884Z,81.38
2018-03-11T09:15:14.889Z,81.01
2018-03-11T09:16:24.615Z,81.2
2018-03-11T09:17:33.644Z,80.82
2018-03-11T09:18:43.696Z,81.38
2018-03-11T09:19:53.161Z,81.1
2018-03-11T09:21:02.669Z,81.01
2018-03-11T09:22:12.400Z,80.82
2018-03-11T09:23:22.399Z,81.01
2018-03-11T09:24:32.130Z,80.82
2018-03-11T09:25:42.126Z,81.1
2018-03-11T09:26:52.126Z,81.2
2018-03-11T09:28:02.122Z,81.1
2018-03-11T09:29:11.620Z,81.38
2018-03-11T09:30:21.630Z,81.01
2018-03-11T09:31:31.633Z,81.48
2018-03-11T09:32:41.639Z,81.95
2018-03-11T09:33:51.368Z,81.38
2018-03-11T09:35:01.370Z,81.1
2018-03-11T09:36:11.366Z,81.48
2018-03-11T09:37:21.366Z,81.38
2018-03-11T09:38:31.363Z,81.2
2018-03-11T09:39:41.359Z,81.38
2018-03-11T09:40:51.089Z,81.76
2018-03-11T09:42:00.551Z,81.76
2018-03-11T09:43:10.017Z,81.2
2018-03-11T09:44:19.752Z,81.01
2018-03-11T09:45:28.950Z,81.01
2018-03-11T09:46:38.145Z,80.63
2018-03-11T09:47:48.148Z,81.1
2018-03-11T09:48:58.146Z,81.76
2018-03-11T09:50:08.142Z,81.38
2018-03-11T09:51:18.141Z,81.04
2018-03-11T09:52:27.866Z,80.19
2018-03-11T09:53:37.390Z,80.19
2018-03-11T09:54:47.123Z,80.19
2018-03-11T09:55:57.131Z,80.19
2018-03-11T09:57:06.607Z,79.86
2018-03-11T09:58:16.339Z,80.33
2018-03-11T09:59:26.334Z,79.57
2018-03-11T10:00:35.798Z,78.81
2018-03-11T10:01:45.795Z,77.4
2018-03-11T10:02:55.802Z,77.02
2018-03-11T10:04:05.691Z,77.4
2018-03-11T10:05:15.422Z,78.06
2018-03-11T10:06:24.622Z,78.25
2018-03-11T10:07:34.691Z,78.25
2018-03-11T10:08:44.164Z,78.44
2018-03-11T10:09:53.631Z,79.1
2018-03-11T10:11:03.632Z,78.91
2018-03-11T10:12:13.635Z,80.14
2018-03-11T10:13:23.100Z,80.24
2018-03-11T10:14:32.931Z,81.09
2018-03-11T10:15:42.668Z,80.9
2018-03-11T10:16:52.664Z,80.94
2018-03-11T10:18:02.396Z,80.65
2018-03-11T10:19:12.390Z,80.18
2018-03-11T10:20:22.130Z,79.8
2018-03-11T10:21:32.130Z,79.71
2018-03-11T10:22:42.127Z,79.24
2018-03-11T10:23:51.596Z,77.34
2018-03-11T10:25:01.593Z,76.17
2018-03-11T10:26:10.790Z,77.4
2018-03-11T10:27:20.797Z,77.97
2018-03-11T10:28:30.802Z,77.78
2018-03-11T10:29:40.540Z,77.78
2018-03-11T10:30:50.556Z,77.64
2018-03-11T10:32:00.294Z,77.64
2018-03-11T10:33:10.300Z,78.02
2018-03-11T10:34:20.037Z,78.59
2018-03-11T10:35:29.502Z,78.59
2018-03-11T10:36:39.505Z,78.68
2018-03-11T10:37:49.050Z,78.55
2018-03-11T10:38:59.079Z,79.21
2018-03-11T10:40:08.546Z,79.97
2018-03-11T10:41:18.553Z,80.72
2018-03-11T10:42:28.548Z,81.38
2018-03-11T10:43:38.277Z,82.23
2018-03-11T10:44:48.006Z,82.61
2018-03-11T10:45:57.464Z,82.7
2018-03-11T10:47:06.932Z,83.42
2018-03-11T10:48:16.935Z,83.7
2018-03-11T10:49:26.668Z,84.74
2018-03-11T10:50:36.695Z,85.21
2018-03-11T10:51:46.492Z,85.02
2018-03-11T10:52:56.491Z,85.4
2018-03-11T10:54:05.960Z,85.96
2018-03-11T10:55:15.960Z,85.77
2018-03-11T10:56:25.954Z,86.15
2018-03-11T10:57:35.684Z,86.25
2018-03-11T10:58:45.148Z,86.63
2018-03-11T10:59:55.145Z,86.63
2018-03-11T11:01:04.874Z,87
2018-03-11T11:02:14.413Z,87
2018-03-11T11:03:24.477Z,87.19
2018-03-11T11:04:34.472Z,86.44
2018-03-11T11:05:44.461Z,86.63
2018-03-11T11:06:54.463Z,87.19
2018-03-11T11:08:04.459Z,87.29
2018-03-11T11:09:14.188Z,86.63
2018-03-11T11:10:23.644Z,86.25
2018-03-11T11:11:33.364Z,86.06
2018-03-11T11:12:43.101Z,86.06
2018-03-11T11:13:52.565Z,85.96
2018-03-11T11:15:02.297Z,85.96
2018-03-11T11:16:12.030Z,85.68
2018-03-11T11:17:22.023Z,85.06
2018-03-11T11:18:31.749Z,85.16
2018-03-11T11:19:41.739Z,85.06
2018-03-11T11:20:51.745Z,85.16
2018-03-11T11:22:01.744Z,84.78
2018-03-11T11:23:11.740Z,85.16
2018-03-11T11:24:21.737Z,84.5
2018-03-11T11:25:31.798Z,85.16
2018-03-11T11:26:41.907Z,84.59
2018-03-11T11:27:51.634Z,84.69
2018-03-11T11:29:01.632Z,84.97
2018-03-11T11:30:11.634Z,84.88
2018-03-11T11:31:21.100Z,84.78
2018-03-11T11:32:30.828Z,84.69
2018-03-11T11:33:40.835Z,84.78
2018-03-11T11:34:50.833Z,84.97
2018-03-11T11:36:00.869Z,85.16
2018-03-11T11:37:10.602Z,84.78
2018-03-11T11:38:20.600Z,85.35
2018-03-11T11:39:30.602Z,85.35
2018-03-11T11:40:40.062Z,85.25
2018-03-11T11:41:49.797Z,84.78
2018-03-11T11:42:59.890Z,85.06
2018-03-11T11:44:09.921Z,85.35
2018-03-11T11:45:19.387Z,84.41
2018-03-11T11:46:29.384Z,84.41
2018-03-11T11:47:39.125Z,84.88
2018-03-11T11:48:49.016Z,84.03
2018-03-11T11:49:59.168Z,84.45
2018-03-11T11:51:09.223Z,83.31
2018-03-11T11:52:18.953Z,82.75
2018-03-11T11:53:28.692Z,83.03
2018-03-11T11:54:38.734Z,83.27
2018-03-11T11:55:48.472Z,83.74
2018-03-11T11:56:58.199Z,83.93
2018-03-11T11:58:07.931Z,84.88
2018-03-11T11:59:16.998Z,85.06
2018-03-11T12:00:26.566Z,85.16
2018-03-11T12:01:36.030Z,84.97
2018-03-11T12:02:45.492Z,84.12
2018-03-11T12:03:55.224Z,84.59
2018-03-11T12:05:04.963Z,84.35
2018-03-11T12:06:15.006Z,84.12
2018-03-11T12:07:24.741Z,84.5
2018-03-11T12:08:34.738Z,84.88
2018-03-11T12:09:44.740Z,85.44
2018-03-11T12:10:54.473Z,84.78
2018-03-11T12:12:04.505Z,85.35
2018-03-11T12:13:14.315Z,85.63
2018-03-11T12:14:24.315Z,86.48
2018-03-11T12:15:34.048Z,87.24
2018-03-11T12:16:43.511Z,87.52
2018-03-11T12:17:53.246Z,88.42
2018-03-11T12:19:02.980Z,88.79
2018-03-11T12:20:12.973Z,89.36
2018-03-11T12:21:22.435Z,89.17
2018-03-11T12:22:32.443Z,89.64
2018-03-11T12:23:42.254Z,89.64
2018-03-11T12:24:52.256Z,90.31
2018-03-11T12:26:01.715Z,90.31
2018-03-11T12:27:10.915Z,90.12
2018-03-11T12:28:20.905Z,90.12
2018-03-11T12:29:30.631Z,90.12
2018-03-11T12:30:40.635Z,89.74
2018-03-11T12:31:50.367Z,89.93
2018-03-11T12:32:59.839Z,88.79
2018-03-11T12:34:09.571Z,88.75
2018-03-11T12:35:19.588Z,88.75
2018-03-11T12:36:29.584Z,88.56
2018-03-11T12:37:39.045Z,88.46
2018-03-11T12:38:48.516Z,87.71
2018-03-11T12:39:58.516Z,87.8
2018-03-11T12:41:08.248Z,87.62
2018-03-11T12:42:18.318Z,87.9
2018-03-11T12:43:28.315Z,87.52
2018-03-11T12:44:38.054Z,87.24
2018-03-11T12:45:47.798Z,87.52
2018-03-11T12:46:57.527Z,87.43
2018-03-11T12:48:07.561Z,87.43
2018-03-11T12:49:17.029Z,87.8
2018-03-11T12:50:26.755Z,87.33
2018-03-11T12:51:36.480Z,87.05
2018-03-11T12:52:46.213Z,86.76
2018-03-11T12:53:55.938Z,87.14
2018-03-11T12:55:05.404Z,86.48
2018-03-11T12:56:14.866Z,86.67
2018-03-11T12:57:24.866Z,86.29
2018-03-11T12:58:34.859Z,86.19
2018-03-11T12:59:44.582Z,86.29
2018-03-11T13:00:54.314Z,86.1
2018-03-11T13:02:04.040Z,86.1
2018-03-11T13:03:13.505Z,85.53
2018-03-11T13:04:23.232Z,85.44
2018-03-11T13:05:32.432Z,85.72
2018-03-11T13:06:42.437Z,84.97
2018-03-11T13:07:52.173Z,85.63
2018-03-11T13:09:01.907Z,85.53
2018-03-11T13:10:11.371Z,85.63
2018-03-11T13:11:21.372Z,85.44
2018-03-11T13:12:30.848Z,85.44
2018-03-11T13:13:40.848Z,85.16
2018-03-11T13:14:50.585Z,84.73
2018-03-11T13:16:00.577Z,84.64
2018-03-11T13:17:10.310Z,84.45
2018-03-11T13:18:20.309Z,84.45
2018-03-11T13:19:30.412Z,83.78
2018-03-11T13:20:40.504Z,83.22
2018-03-11T13:21:50.240Z,83.03
2018-03-11T13:22:59.699Z,82.69
2018-03-11T13:24:09.638Z,82.31
2018-03-11T13:25:19.646Z,81.27
2018-03-11T13:26:29.110Z,81.46
2018-03-11T13:27:38.837Z,81.46
2018-03-11T13:28:48.831Z,80.99
2018-03-11T13:29:58.837Z,80.8
2018-03-11T13:31:08.662Z,80.62
2018-03-11T13:32:18.665Z,81.09
2018-03-11T13:33:28.394Z,80.71
2018-03-11T13:34:38.125Z,80.14
2018-03-11T13:35:47.590Z,80.24
2018-03-11T13:36:57.586Z,79.57
2018-03-11T13:38:07.344Z,79.76
2018-03-11T13:39:17.111Z,79.76
2018-03-11T13:40:27.111Z,79.76
2018-03-11T13:41:36.852Z,79.67
2018-03-11T13:42:46.845Z,79.57
2018-03-11T13:43:56.847Z,79.19
2018-03-11T13:45:06.576Z,79.24
2018-03-11T13:46:16.572Z,79.05
2018-03-11T13:47:26.031Z,79.33
2018-03-11T13:48:36.032Z,78.86
2018-03-11T13:49:45.498Z,78.48
2018-03-11T13:50:55.233Z,78.67
2018-03-11T13:52:05.234Z,78.29
2018-03-11T13:53:14.701Z,78.48
2018-03-11T13:54:24.700Z,78.48
2018-03-11T13:55:34.157Z,78.48
2018-03-11T13:56:43.699Z,77.82
2018-03-11T13:57:53.695Z,77.63
2018-03-11T13:59:03.690Z,76.4
2018-03-11T14:00:13.704Z,76.59
2018-03-11T14:01:23.705Z,76.4
2018-03-11T14:02:33.432Z,76.21
2018-03-11T14:03:43.180Z,76.4
2018-03-11T14:04:52.915Z,76.31
2018-03-11T14:06:02.930Z,76.5
2018-03-11T14:07:12.758Z,76.31
2018-03-11T14:08:22.489Z,76.4
2018-03-11T14:09:31.951Z,76.4
2018-03-11T14:10:41.953Z,76.12
2018-03-11T14:11:51.681Z,75.93
2018-03-11T14:13:01.413Z,76.12
2018-03-11T14:14:11.194Z,75.93
2018-03-11T14:15:20.941Z,76.31
2018-03-11T14:16:30.673Z,75.93
2018-03-11T14:17:40.670Z,75.93
2018-03-11T14:18:50.744Z,76.4
2018-03-11T14:20:00.648Z,76.02
2018-03-11T14:21:10.642Z,76.21
2018-03-11T14:22:20.636Z,76.4
2018-03-11T14:23:30.404Z,76.53
2018-03-11T14:24:40.140Z,76.63
2018-03-11T14:25:49.877Z,76.25
2018-03-11T14:26:59.886Z,76.5
2018-03-11T14:28:09.351Z,76.31
2018-03-11T14:29:18.820Z,76.4
2018-03-11T14:30:28.815Z,76.5
2018-03-11T14:31:38.273Z,77.25
2018-03-11T14:32:47.734Z,76.5
2018-03-11T14:33:57.464Z,77.06
2018-03-11T14:35:07.208Z,77.06
2018-03-11T14:36:17.195Z,77.15
2018-03-11T14:37:26.921Z,77.06
2018-03-11T14:38:36.385Z,77.34
2018-03-11T14:39:46.119Z,76.97
2018-03-11T14:40:55.848Z,77.25
2018-03-11T14:42:05.312Z,77.53
2018-03-11T14:43:14.567Z,77.25
2018-03-11T14:44:24.573Z,77.44
2018-03-11T14:45:34.048Z,77.34
2018-03-11T14:46:43.814Z,77.72
2018-03-11T14:47:53.811Z,77.25
2018-03-11T14:49:03.809Z,77.82
2018-03-11T14:50:13.805Z,78.1
2018-03-11T14:51:23.833Z,77.25
2018-03-11T14:52:33.567Z,77.53
2018-03-11T14:53:43.035Z,78.06
2018-03-11T14:54:52.780Z,78.25
2018-03-11T14:56:02.774Z,79.19
2018-03-11T14:57:11.973Z,79.76
2018-03-11T14:58:21.983Z,79.57
2018-03-11T14:59:31.720Z,79.86
2018-03-11T15:00:41.195Z,80.05
2018-03-11T15:01:50.929Z,81.18
2018-03-11T15:03:00.925Z,81.65
2018-03-11T15:04:10.658Z,81.37